Terminal Aerodrome Forecast
Issued by NWS Albany, NY

Home | Current Version | Previous Version | Text Only | Print | Product List | Glossary On
Versions: 1 2 3 4 5 6 7 8 9 10 11 12 13 14 15 16 17
000
FTUS41 KALY 281700
TAFGFL
TAF
KGFL 281720Z 2818/2918 27008KT P6SM VCSH OVC040
     FM282300 28007KT P6SM SCT045 BKN150
     FM290600 28005KT P6SM SCT150
     FM291400 33009KT P6SM SCT040=

USA.gov is the U.S. government's official web portal to all federal, state and local government web resources and services.